Terminal Aerodrome Forecast
Issued by NWS

Home | Current Version | Previous Version | Text Only | Print | Product List | Glossary On
Versions: 1 2 3 4 5 6 7 8 9 10 11 12 13 14 15 16 17 18 19 20 21 22 23 24 25 26 27 28 29 30 31 32 33 34 35 36 37 38 39 40 41 42
000
FTUS41 KBOX 211129
TAFACK
TAF
KACK 211129Z 2112/2212 23014KT 1/4SM FG VV002 WS020/25040KT
     FM212000 23017KT 1/2SM FG OVC003 WS020/26040KT
     FM212200 23016KT 1/2SM FG OVC003
     FM220500 31010KT 2SM BR OVC006
     FM220600 32010KT P6SM OVC015
     FM220900 01012G20KT P6SM OVC035=

USA.gov is the U.S. government's official web portal to all federal, state and local government web resources and services.